createdAt,value
2022-09-15T00:00:57.353Z,12.57
2022-09-15T00:03:24.041Z,11.70
2022-09-15T00:05:50.804Z,13.68
2022-09-15T00:08:17.285Z,13.45
2022-09-15T00:11:13.515Z,13.80
2022-09-15T00:13:40.447Z,12.48
2022-09-15T00:16:07.095Z,14.35
2022-09-15T00:18:33.727Z,15.15
2022-09-15T00:21:00.392Z,12.82
2022-09-15T00:23:26.870Z,12.13
2022-09-15T00:25:53.422Z,12.65
2022-09-15T00:28:21.112Z,11.80
2022-09-15T00:30:49.067Z,13.18
2022-09-15T00:33:15.678Z,11.95
2022-09-15T00:35:42.733Z,12.85
2022-09-15T00:38:09.671Z,11.80
2022-09-15T00:40:43.545Z,10.95
2022-09-15T00:43:10.349Z,11.90
2022-09-15T00:45:37.345Z,12.23
2022-09-15T00:48:04.815Z,10.50
2022-09-15T00:50:31.344Z,10.82
2022-09-15T00:52:58.523Z,11.18
2022-09-15T00:55:29.360Z,10.30
2022-09-15T00:57:56.663Z,9.98
2022-09-15T01:00:23.844Z,10.90
2022-09-15T01:02:50.625Z,11.48
2022-09-15T01:05:17.895Z,11.52
2022-09-15T01:07:46.406Z,10.05
2022-09-15T01:10:18.073Z,10.93
2022-09-15T01:12:44.522Z,10.57
2022-09-15T01:15:11.042Z,12.35
2022-09-15T01:17:45.833Z,12.57
2022-09-15T01:20:18.349Z,12.48
2022-09-15T01:23:07.725Z,11.90
2022-09-15T01:25:46.503Z,13.45
2022-09-15T01:28:16.138Z,13.52
2022-09-15T01:30:42.846Z,13.77
2022-09-15T01:33:14.960Z,13.20
2022-09-15T01:35:47.444Z,13.63
2022-09-15T01:38:16.451Z,12.63
2022-09-15T01:41:03.133Z,14.90
2022-09-15T01:43:29.895Z,14.73
2022-09-15T01:45:56.332Z,14.52
2022-09-15T01:48:24.038Z,14.13
2022-09-15T01:50:51.672Z,13.45
2022-09-15T01:53:18.622Z,13.82
2022-09-15T01:55:47.299Z,12.50
2022-09-15T01:58:13.714Z,11.50
2022-09-15T02:00:42.006Z,11.13
2022-09-15T02:03:17.343Z,12.35
2022-09-15T02:05:45.366Z,11.10
2022-09-15T02:08:30.162Z,11.90
2022-09-15T02:10:58.967Z,11.18
2022-09-15T02:13:31.520Z,10.38
2022-09-15T02:15:58.284Z,12.23
2022-09-15T02:18:51.261Z,12.02
2022-09-15T02:21:19.844Z,9.68
2022-09-15T02:23:49.135Z,10.95
2022-09-15T02:26:16.931Z,11.18
2022-09-15T02:28:43.440Z,10.50
2022-09-15T02:31:11.985Z,10.23
2022-09-15T02:33:44.511Z,10.48
2022-09-15T02:36:12.223Z,10.18
2022-09-15T02:38:39.441Z,10.13
2022-09-15T02:41:06.016Z,10.82
2022-09-15T02:43:33.786Z,10.18
2022-09-15T02:46:00.491Z,9.05
2022-09-15T02:48:26.964Z,10.15
2022-09-15T02:50:53.435Z,11.77
2022-09-15T02:53:19.832Z,11.18
2022-09-15T02:55:46.380Z,12.15
2022-09-15T02:58:12.792Z,12.40
2022-09-15T03:00:39.305Z,11.82
2022-09-15T03:03:05.776Z,12.07
2022-09-15T03:05:32.207Z,11.55
2022-09-15T03:07:58.665Z,11.38
2022-09-15T03:10:25.309Z,12.10
2022-09-15T03:12:52.619Z,11.02
2022-09-15T03:15:19.886Z,11.80
2022-09-15T03:17:47.093Z,12.52
2022-09-15T03:20:17.418Z,11.40
2022-09-15T03:22:44.111Z,10.20
2022-09-15T03:25:10.644Z,12.48
2022-09-15T03:27:37.151Z,12.10
2022-09-15T03:30:04.400Z,12.10
2022-09-15T03:32:30.959Z,11.20
2022-09-15T03:34:58.576Z,11.27
2022-09-15T03:37:25.361Z,10.63
2022-09-15T03:39:51.873Z,9.45
2022-09-15T03:42:18.405Z,10.30
2022-09-15T03:44:44.883Z,8.77
2022-09-15T03:47:11.328Z,8.45
2022-09-15T03:49:37.801Z,8.90
2022-09-15T03:52:04.402Z,9.18
2022-09-15T03:54:30.917Z,8.65
2022-09-15T03:56:57.381Z,8.32
2022-09-15T03:59:23.811Z,8.95
2022-09-15T04:01:51.009Z,8.30
2022-09-15T04:04:17.631Z,8.27
2022-09-15T04:06:45.055Z,8.07
2022-09-15T04:09:11.539Z,7.38
2022-09-15T04:11:38.317Z,8.23
2022-09-15T04:14:04.798Z,7.68
2022-09-15T04:16:31.300Z,8.82
2022-09-15T04:18:58.084Z,8.63
2022-09-15T04:21:25.263Z,9.15
2022-09-15T04:23:51.806Z,8.85
2022-09-15T04:26:26.122Z,8.85
2022-09-15T04:28:52.651Z,8.40
2022-09-15T04:31:19.206Z,9.13
2022-09-15T04:33:46.247Z,9.55
2022-09-15T04:36:36.692Z,9.57
2022-09-15T04:39:03.285Z,9.65
2022-09-15T04:41:29.707Z,9.65
2022-09-15T04:43:56.261Z,9.15
2022-09-15T04:46:22.750Z,7.90
2022-09-15T04:48:49.473Z,8.82
2022-09-15T04:51:19.658Z,8.90
2022-09-15T04:53:46.224Z,7.35
2022-09-15T04:56:13.546Z,7.70
2022-09-15T04:58:40.851Z,7.55
2022-09-15T05:01:08.379Z,6.95
2022-09-15T05:03:35.482Z,7.03
2022-09-15T05:06:01.932Z,6.10
2022-09-15T05:08:28.423Z,6.50
2022-09-15T05:10:58.798Z,5.85
2022-09-15T05:13:25.330Z,4.43
2022-09-15T05:15:51.779Z,5.45
2022-09-15T05:18:18.245Z,5.18
2022-09-15T05:20:44.685Z,4.57
2022-09-15T05:23:11.242Z,4.50
2022-09-15T05:25:38.849Z,4.97
2022-09-15T05:28:05.789Z,4.43
2022-09-15T05:30:38.620Z,4.22
2022-09-15T05:33:05.715Z,5.18
2022-09-15T05:35:32.152Z,4.85
2022-09-15T05:37:58.843Z,3.95
2022-09-15T05:40:25.356Z,4.20
2022-09-15T05:42:51.820Z,3.60
2022-09-15T05:45:18.255Z,4.05
2022-09-15T05:47:44.873Z,3.63
2022-09-15T05:50:11.499Z,4.13
2022-09-15T05:52:38.299Z,4.30
2022-09-15T05:55:04.931Z,4.60
2022-09-15T05:57:31.395Z,4.03
2022-09-15T05:59:57.813Z,4.32
2022-09-15T06:02:24.351Z,4.00
2022-09-15T06:04:50.767Z,3.40
2022-09-15T06:07:17.419Z,3.72
2022-09-15T06:09:44.084Z,3.50
2022-09-15T06:12:10.537Z,4.30
2022-09-15T06:14:37.008Z,5.78
2022-09-15T06:17:03.463Z,2.25
2022-09-15T06:19:29.998Z,2.42
2022-09-15T06:21:56.469Z,1.73
2022-09-15T06:24:22.948Z,1.30
2022-09-15T06:26:49.410Z,0.98
2022-09-15T06:29:15.922Z,0.70
2022-09-15T06:31:42.394Z,0.80
2022-09-15T06:34:10.064Z,0.70
2022-09-15T06:36:36.591Z,0.70
2022-09-15T06:39:03.217Z,0.80
2022-09-15T06:41:42.644Z,0.50
2022-09-15T06:44:16.161Z,0.52
2022-09-15T06:46:42.653Z,0.50
2022-09-15T06:49:09.368Z,0.40
2022-09-15T06:51:36.343Z,0.30
2022-09-15T06:54:03.269Z,0.32
2022-09-15T06:56:30.956Z,0.40
2022-09-15T06:58:59.119Z,0.60
2022-09-15T07:01:25.908Z,0.90
2022-09-15T07:03:52.688Z,0.80
2022-09-15T07:06:19.303Z,1.02
2022-09-15T07:08:46.813Z,1.00
2022-09-15T07:11:13.337Z,1.50
2022-09-15T07:13:40.074Z,1.60
2022-09-15T07:16:07.609Z,1.25
2022-09-15T07:18:34.220Z,1.23
2022-09-15T07:21:01.991Z,0.98
2022-09-15T07:23:28.449Z,1.05
2022-09-15T07:26:11.229Z,0.90
2022-09-15T07:28:37.802Z,1.50
2022-09-15T07:31:05.067Z,1.70
2022-09-15T07:33:31.605Z,3.13
2022-09-15T07:35:58.072Z,3.30
2022-09-15T07:38:24.566Z,3.80
2022-09-15T07:40:51.104Z,4.20
2022-09-15T07:43:19.646Z,5.05
2022-09-15T07:45:46.419Z,4.78
2022-09-15T07:48:12.899Z,5.65
2022-09-15T07:50:39.370Z,6.07
2022-09-15T07:53:05.990Z,5.00
2022-09-15T07:55:32.936Z,5.50
2022-09-15T07:57:59.964Z,4.05
2022-09-15T08:00:26.893Z,2.72
2022-09-15T08:02:53.615Z,2.45
2022-09-15T08:05:20.174Z,2.13
2022-09-15T08:07:46.648Z,1.55
2022-09-15T08:10:13.112Z,1.70
2022-09-15T08:12:40.895Z,1.40
2022-09-15T08:15:07.524Z,2.28
2022-09-15T08:17:34.641Z,3.30
2022-09-15T08:20:01.156Z,3.45
2022-09-15T08:22:27.629Z,3.80
2022-09-15T08:24:54.066Z,7.70
2022-09-15T08:27:20.531Z,6.35
2022-09-15T08:29:46.956Z,6.93
2022-09-15T08:32:13.461Z,7.25
2022-09-15T08:34:39.943Z,5.97
2022-09-15T08:37:06.447Z,6.70
2022-09-15T08:39:32.929Z,5.80
2022-09-15T08:41:59.579Z,4.22
2022-09-15T08:44:45.012Z,3.47
2022-09-15T08:47:22.003Z,2.80
2022-09-15T08:49:52.907Z,1.63
2022-09-15T08:52:25.117Z,1.67
2022-09-15T08:54:51.715Z,1.30
2022-09-15T08:57:19.042Z,1.40
2022-09-15T08:59:45.907Z,1.40
2022-09-15T09:02:12.314Z,1.50
2022-09-15T09:04:41.998Z,1.42
2022-09-15T09:07:18.804Z,1.08
2022-09-15T09:09:45.251Z,0.93
2022-09-15T09:12:15.128Z,0.80
2022-09-15T09:14:44.896Z,0.85
2022-09-15T09:17:30.492Z,0.80
2022-09-15T09:19:57.032Z,0.80
2022-09-15T09:22:24.251Z,0.98
2022-09-15T09:24:51.725Z,1.00
2022-09-15T09:27:19.268Z,0.80
2022-09-15T09:29:49.664Z,0.93
2022-09-15T09:32:25.210Z,0.88
2022-09-15T09:34:56.123Z,1.00
2022-09-15T09:37:22.882Z,0.98
2022-09-15T09:39:49.469Z,0.90
2022-09-15T09:42:16.954Z,1.00
2022-09-15T09:44:43.396Z,1.10
2022-09-15T09:47:10.154Z,1.00
2022-09-15T09:49:38.824Z,0.98
2022-09-15T09:52:05.342Z,1.13
2022-09-15T09:54:33.097Z,0.90
2022-09-15T09:57:19.898Z,1.27
2022-09-15T09:59:46.823Z,0.90
2022-09-15T10:02:28.879Z,1.00
2022-09-15T10:04:56.315Z,1.13
2022-09-15T10:07:26.236Z,1.00
2022-09-15T10:09:57.000Z,1.00
2022-09-15T10:12:29.441Z,0.90
2022-09-15T10:14:56.888Z,0.80
2022-09-15T10:17:23.999Z,0.80
2022-09-15T10:19:52.742Z,0.95
2022-09-15T10:22:38.108Z,0.90
2022-09-15T10:25:39.414Z,0.90
2022-09-15T10:28:12.336Z,1.40
2022-09-15T10:30:39.358Z,1.42
2022-09-15T10:33:38.427Z,1.50
2022-09-15T10:36:11.498Z,1.35
2022-09-15T10:38:39.634Z,1.20
2022-09-15T10:41:21.635Z,1.42
2022-09-15T10:43:48.280Z,1.60
2022-09-15T10:46:27.748Z,1.40
2022-09-15T10:48:54.248Z,1.00
2022-09-15T10:51:26.931Z,0.95
2022-09-15T10:54:05.383Z,1.00
2022-09-15T10:56:37.128Z,1.30
2022-09-15T10:59:15.846Z,1.02
2022-09-15T11:01:48.430Z,1.10
2022-09-15T11:04:14.904Z,1.00
2022-09-15T11:07:04.578Z,1.30
2022-09-15T11:09:34.991Z,1.10
2022-09-15T11:12:19.922Z,1.20
2022-09-15T11:15:05.432Z,1.10
2022-09-15T11:17:34.989Z,1.25
2022-09-15T11:20:20.232Z,1.40
2022-09-15T11:22:49.732Z,1.40
2022-09-15T11:25:20.445Z,1.40
2022-09-15T11:27:47.699Z,1.55
2022-09-15T11:30:21.121Z,1.88
2022-09-15T11:33:04.395Z,2.30
2022-09-15T11:35:31.359Z,2.45
2022-09-15T11:37:59.554Z,3.15
2022-09-15T11:40:29.669Z,3.75
2022-09-15T11:42:58.868Z,4.30
2022-09-15T11:45:25.919Z,4.45
2022-09-15T11:47:59.394Z,4.72
2022-09-15T11:50:35.957Z,4.55
2022-09-15T11:53:09.768Z,5.18
2022-09-15T11:55:43.243Z,5.00
2022-09-15T11:58:28.635Z,5.47
2022-09-15T12:01:09.026Z,7.30
2022-09-15T12:03:47.241Z,6.72
2022-09-15T12:06:32.602Z,7.10
2022-09-15T12:09:02.932Z,6.47
2022-09-15T12:11:30.502Z,7.50
2022-09-15T12:13:57.207Z,6.78
2022-09-15T12:16:23.827Z,6.93
2022-09-15T12:18:56.424Z,7.00
2022-09-15T12:21:26.364Z,7.35
2022-09-15T12:23:55.048Z,7.68
2022-09-15T12:26:22.338Z,8.00
2022-09-15T12:29:04.661Z,9.65
2022-09-15T12:31:35.100Z,9.60
2022-09-15T12:34:03.122Z,10.85
2022-09-15T12:36:38.624Z,9.85
2022-09-15T12:39:26.011Z,9.38
2022-09-15T12:41:56.885Z,11.80
2022-09-15T12:44:24.790Z,9.98
2022-09-15T12:46:52.690Z,14.15
2022-09-15T12:49:19.236Z,13.35
2022-09-15T12:51:48.915Z,13.15
2022-09-15T12:54:19.343Z,11.65
2022-09-15T12:56:45.804Z,14.05
2022-09-15T12:59:13.164Z,14.13
2022-09-15T13:01:49.507Z,14.63
2022-09-15T13:04:34.950Z,14.27
2022-09-15T13:07:17.240Z,15.55
2022-09-15T13:10:03.986Z,14.38
2022-09-15T13:12:31.372Z,15.88
2022-09-15T13:14:58.312Z,16.50
2022-09-15T13:17:25.305Z,15.23
2022-09-15T13:19:56.347Z,16.80
2022-09-15T13:22:24.098Z,16.73
2022-09-15T13:25:15.899Z,17.88
2022-09-15T13:27:52.159Z,18.67
2022-09-15T13:30:22.231Z,17.13
2022-09-15T13:32:52.396Z,16.63
2022-09-15T13:35:21.902Z,16.73
2022-09-15T13:38:16.626Z,16.30
2022-09-15T13:40:59.407Z,16.35
2022-09-15T13:43:44.705Z,14.13
2022-09-15T13:46:12.718Z,13.23
2022-09-15T13:48:49.965Z,13.00
2022-09-15T13:51:23.387Z,14.43
2022-09-15T13:53:59.749Z,12.05
2022-09-15T13:56:31.150Z,14.43
2022-09-15T13:59:05.193Z,13.27
2022-09-15T14:01:36.418Z,12.65
2022-09-15T14:04:16.725Z,11.75
2022-09-15T14:06:47.090Z,12.93
2022-09-15T14:09:15.138Z,11.65
2022-09-15T14:11:41.683Z,12.95
2022-09-15T14:14:10.734Z,12.88
2022-09-15T14:16:37.536Z,12.40
2022-09-15T14:19:05.918Z,10.60
2022-09-15T14:21:33.301Z,10.73
2022-09-15T14:24:02.832Z,12.13
2022-09-15T14:26:29.587Z,11.75
2022-09-15T14:29:03.338Z,9.95
2022-09-15T14:31:33.525Z,9.88
2022-09-15T14:34:00.707Z,9.50
2022-09-15T14:36:32.172Z,8.00
2022-09-15T14:39:18.132Z,7.32
2022-09-15T14:41:45.128Z,7.50
2022-09-15T14:47:12.327Z,7.05
2022-09-15T14:49:38.798Z,8.27
2022-09-15T14:52:05.504Z,8.35
2022-09-15T14:54:34.210Z,7.57
2022-09-15T14:57:01.692Z,7.63
2022-09-15T14:59:33.669Z,9.48
2022-09-15T15:02:12.110Z,8.55
2022-09-15T15:04:40.354Z,9.35
2022-09-15T15:07:09.945Z,10.55
2022-09-15T15:09:50.272Z,11.65
2022-09-15T15:12:27.294Z,13.48
2022-09-15T15:14:54.131Z,12.10
2022-09-15T15:17:25.057Z,11.93
2022-09-15T15:19:57.878Z,12.45
2022-09-15T15:22:24.329Z,12.18
2022-09-15T15:24:51.701Z,12.63
2022-09-15T15:27:24.446Z,13.15
2022-09-15T15:29:51.889Z,14.05
2022-09-15T15:32:21.741Z,11.60
2022-09-15T15:34:52.141Z,9.50
2022-09-15T15:37:31.673Z,9.93
2022-09-15T15:39:58.922Z,9.52
2022-09-15T15:42:26.249Z,8.80
2022-09-15T15:44:59.758Z,7.97
2022-09-15T15:47:28.632Z,9.52
2022-09-15T15:50:12.236Z,9.00
2022-09-15T15:52:42.111Z,8.45
2022-09-15T15:55:09.733Z,8.77
2022-09-15T15:57:42.182Z,8.32
2022-09-15T16:00:33.391Z,9.15
2022-09-15T16:02:59.895Z,7.45
2022-09-15T16:05:26.970Z,7.15
2022-09-15T16:07:53.512Z,6.57
2022-09-15T16:10:21.848Z,7.30
2022-09-15T16:12:48.333Z,6.75
2022-09-15T16:15:17.933Z,8.35
2022-09-15T16:17:46.875Z,8.75
2022-09-15T16:20:16.271Z,8.32
2022-09-15T16:22:43.115Z,9.27
2022-09-15T16:25:16.950Z,9.18
2022-09-15T16:27:43.471Z,8.27
2022-09-15T16:30:12.139Z,8.25
2022-09-15T16:32:39.737Z,7.40
2022-09-15T16:35:26.653Z,8.00
2022-09-15T16:37:53.327Z,7.35
2022-09-15T16:40:20.065Z,8.20
2022-09-15T16:42:47.655Z,7.60
2022-09-15T16:45:36.479Z,7.75
2022-09-15T16:48:06.294Z,7.53
2022-09-15T16:50:33.314Z,6.78
2022-09-15T16:53:00.264Z,6.82
2022-09-15T16:55:34.077Z,6.85
2022-09-15T16:58:01.327Z,7.30
2022-09-15T17:00:31.751Z,6.70
2022-09-15T17:02:58.655Z,6.15
2022-09-15T17:05:25.278Z,7.68
2022-09-15T17:07:52.226Z,6.65
2022-09-15T17:10:18.701Z,7.32
2022-09-15T17:12:45.174Z,7.32
2022-09-15T17:15:19.087Z,7.88
2022-09-15T17:17:45.577Z,7.47
2022-09-15T17:20:12.434Z,7.32
2022-09-15T17:22:38.974Z,7.93
2022-09-15T17:25:12.483Z,7.63
2022-09-15T17:27:38.930Z,5.80
2022-09-15T17:30:05.611Z,5.97
2022-09-15T17:32:34.931Z,6.00
2022-09-15T17:35:02.612Z,6.88
2022-09-15T17:37:29.492Z,6.97
2022-09-15T17:39:58.897Z,6.43
2022-09-15T17:42:25.808Z,7.97
2022-09-15T17:44:52.386Z,7.57
2022-09-15T17:47:19.057Z,7.70
2022-09-15T17:49:45.643Z,6.35
2022-09-15T17:52:12.446Z,6.72
2022-09-15T17:54:38.921Z,6.65
2022-09-15T17:57:06.177Z,7.07
2022-09-15T17:59:32.922Z,6.80
2022-09-15T18:01:59.842Z,7.85
2022-09-15T18:04:26.373Z,6.80
2022-09-15T18:06:54.175Z,6.35
2022-09-15T18:09:20.803Z,6.25
2022-09-15T18:11:47.438Z,7.43
2022-09-15T18:14:14.161Z,6.25
2022-09-15T18:16:43.226Z,6.05
2022-09-15T18:19:13.292Z,6.57
2022-09-15T18:21:39.780Z,6.75
2022-09-15T18:24:06.582Z,6.60
2022-09-15T18:26:33.165Z,6.15
2022-09-15T18:29:00.214Z,5.80
2022-09-15T18:31:27.332Z,6.38
2022-09-15T18:33:54.120Z,5.40
2022-09-15T18:36:21.455Z,6.55
2022-09-15T18:38:48.127Z,6.70
2022-09-15T18:41:14.844Z,6.95
2022-09-15T18:43:41.653Z,7.10
2022-09-15T18:46:08.208Z,7.05
2022-09-15T18:48:34.737Z,7.07
2022-09-15T18:51:01.232Z,7.15
2022-09-15T18:53:27.770Z,7.88
2022-09-15T18:55:54.527Z,7.22
2022-09-15T18:58:22.574Z,6.57
2022-09-15T19:00:49.313Z,8.05
2022-09-15T19:03:15.803Z,7.55
2022-09-15T19:05:42.274Z,8.85
2022-09-15T19:08:09.526Z,9.05
2022-09-15T19:10:36.100Z,9.25
2022-09-15T19:13:02.598Z,8.43
2022-09-15T19:15:31.367Z,10.27
2022-09-15T19:17:58.021Z,9.70
2022-09-15T19:20:24.983Z,10.00
2022-09-15T19:22:51.814Z,8.70
2022-09-15T19:25:18.517Z,9.70
2022-09-15T19:27:45.022Z,10.40
2022-09-15T19:30:12.106Z,10.27
2022-09-15T19:32:38.760Z,11.07
2022-09-15T19:35:05.627Z,10.48
2022-09-15T19:37:32.285Z,10.85
2022-09-15T19:39:59.152Z,12.32
2022-09-15T19:42:25.765Z,12.52
2022-09-15T19:44:52.419Z,11.80
2022-09-15T19:47:18.883Z,12.13
2022-09-15T19:49:45.671Z,12.23
2022-09-15T19:52:12.937Z,12.70
2022-09-15T19:54:39.407Z,13.05
2022-09-15T19:57:05.874Z,12.70
2022-09-15T19:59:32.557Z,11.65
2022-09-15T20:01:59.692Z,13.23
2022-09-15T20:07:13.243Z,10.93
2022-09-15T20:09:40.080Z,11.82
2022-09-15T20:12:06.858Z,11.27
2022-09-15T20:14:34.125Z,12.60
2022-09-15T20:17:01.765Z,11.45
2022-09-15T20:19:29.449Z,13.00
2022-09-15T20:21:56.651Z,11.00
2022-09-15T20:24:24.469Z,11.70
2022-09-15T20:26:54.592Z,12.27
2022-09-15T20:29:21.410Z,10.80
2022-09-15T20:31:48.177Z,12.38
2022-09-15T20:34:15.427Z,11.73
2022-09-15T20:36:43.338Z,12.40
2022-09-15T20:39:13.239Z,12.35
2022-09-15T20:41:40.463Z,11.07
2022-09-15T20:44:10.022Z,11.07
2022-09-15T20:46:37.159Z,12.85
2022-09-15T20:49:04.296Z,11.45
2022-09-15T20:51:32.567Z,11.85
2022-09-15T20:53:59.718Z,11.10
2022-09-15T20:56:27.372Z,11.85
2022-09-15T20:58:55.046Z,11.80
2022-09-15T21:01:25.716Z,11.57
2022-09-15T21:03:52.453Z,10.68
2022-09-15T21:06:20.016Z,10.88
2022-09-15T21:08:47.625Z,10.18
2022-09-15T21:11:15.197Z,9.93
2022-09-15T21:13:42.299Z,10.05
2022-09-15T21:16:10.226Z,9.45
2022-09-15T21:18:37.472Z,10.23
2022-09-15T21:21:07.876Z,9.43
2022-09-15T21:23:38.420Z,9.75
2022-09-15T21:26:05.945Z,10.05
2022-09-15T21:28:32.929Z,8.80
2022-09-15T21:31:03.103Z,8.68
2022-09-15T21:33:29.698Z,9.63
2022-09-15T21:36:15.357Z,9.32
2022-09-15T21:38:42.293Z,11.15
2022-09-15T21:41:09.652Z,10.48
2022-09-15T21:43:36.838Z,9.98
2022-09-15T21:46:04.942Z,10.55
2022-09-15T21:48:31.829Z,10.13
2022-09-15T21:50:58.699Z,11.00
2022-09-15T21:53:25.438Z,10.25
2022-09-15T21:55:52.106Z,11.93
2022-09-15T21:58:19.421Z,13.45
2022-09-15T22:00:46.615Z,13.40
2022-09-15T22:03:13.337Z,13.98
2022-09-15T22:05:40.921Z,14.27
2022-09-15T22:08:08.795Z,13.18
2022-09-15T22:10:35.424Z,13.25
2022-09-15T22:13:02.060Z,12.45
2022-09-15T22:15:28.786Z,13.32
2022-09-15T22:17:55.399Z,11.82
2022-09-15T22:20:22.625Z,10.73
2022-09-15T22:22:49.211Z,10.77
2022-09-15T22:25:21.176Z,8.43
2022-09-15T22:27:48.446Z,9.23
2022-09-15T22:30:15.293Z,8.15
2022-09-15T22:32:41.860Z,8.45
2022-09-15T22:35:08.671Z,9.15
2022-09-15T22:37:35.422Z,7.70
2022-09-15T22:40:02.304Z,8.98
2022-09-15T22:42:28.970Z,9.40
2022-09-15T22:44:55.590Z,10.32
2022-09-15T22:47:23.554Z,11.27
2022-09-15T22:49:50.195Z,9.48
2022-09-15T22:52:16.852Z,9.95
2022-09-15T22:54:43.459Z,10.63
2022-09-15T22:57:14.917Z,9.00
2022-09-15T22:59:41.532Z,8.82
2022-09-15T23:02:08.259Z,8.93
2022-09-15T23:04:34.799Z,8.25
2022-09-15T23:07:01.261Z,7.40
2022-09-15T23:09:27.826Z,8.20
2022-09-15T23:11:54.398Z,8.23
2022-09-15T23:14:20.969Z,8.90
2022-09-15T23:16:47.592Z,9.10
2022-09-15T23:19:14.265Z,9.82
2022-09-15T23:21:40.748Z,9.93
2022-09-15T23:24:08.872Z,10.27
2022-09-15T23:26:35.432Z,10.13
2022-09-15T23:29:01.901Z,8.88
2022-09-15T23:31:28.420Z,9.70
2022-09-15T23:33:54.969Z,9.65
2022-09-15T23:36:21.991Z,10.13
2022-09-15T23:38:48.598Z,9.50
2022-09-15T23:41:15.382Z,9.38
2022-09-15T23:43:41.926Z,9.18
2022-09-15T23:46:08.659Z,10.80
2022-09-15T23:48:35.298Z,9.25
2022-09-15T23:51:01.934Z,9.02
2022-09-15T23:53:28.540Z,10.35
2022-09-15T23:55:55.069Z,9.88
2022-09-15T23:58:21.551Z,11.15
